Time;durP1;ratioP1;P1;durP2;ratioP2;P2;SDS_P1;SDS_P2;PMS_P1;PMS_P2;Temp;Humidity;BMP_temperature;BMP_pressure;BME280_temperature;BME280_humidity;BME280_pressure;Samples;Min_cycle;Max_cycle;Signal;HPM_P1;HPM_P2
2022/05/24 00:00:23;;;;;;;0.40;0.40;;;17.00;1.00;;;;;;5030781;28;20243;-79
2022/05/24 00:02:48;;;;;;;0.40;0.40;;;17.00;1.00;;;;;;5031473;28;20200;-78
2022/05/24 00:05:15;;;;;;;0.30;0.30;;;17.00;1.00;;;;;;5024596;28;20187;-78
2022/05/24 00:07:41;;;;;;;0.40;0.40;;;17.00;1.00;;;;;;5020767;28;20172;-78
2022/05/24 00:10:09;;;;;;;0.40;0.40;;;17.00;1.00;;;;;;5017390;28;20177;-79
2022/05/24 00:12:35;;;;;;;0.30;0.30;;;17.00;1.00;;;;;;5018493;28;20712;-78
2022/05/24 00:15:43;;;;;;;0.30;0.30;;;17.00;1.00;;;;;;5023103;28;20230;-78
2022/05/24 00:18:00;;;;;;;0.30;0.30;;;17.10;1.00;;;;;;5021335;28;20753;-78
2022/05/24 00:20:33;;;;;;;0.33;0.33;;;17.10;1.00;;;;;;5020857;28;20710;-79
2022/05/24 00:22:59;;;;;;;0.40;0.40;;;17.10;1.00;;;;;;5019398;28;20176;-78
2022/05/24 00:25:26;;;;;;;0.40;0.40;;;17.00;1.00;;;;;;5034847;28;20211;-81
2022/05/24 00:27:53;;;;;;;0.40;0.40;;;16.90;27.20;;;;;;5040144;28;20188;-80
2022/05/24 00:30:20;;;;;;;0.40;0.40;;;16.90;96.40;;;;;;5039701;28;20192;-81
2022/05/24 00:32:46;;;;;;;0.40;0.40;;;16.90;88.10;;;;;;5039954;28;20216;-82
2022/05/24 00:35:12;;;;;;;0.50;0.50;;;16.80;99.90;;;;;;5039939;28;20183;-80
2022/05/24 00:37:39;;;;;;;0.40;0.40;;;16.80;99.90;;;;;;5039781;28;20164;-80
2022/05/24 00:40:08;;;;;;;0.37;0.37;;;16.90;88.60;;;;;;5039095;28;20271;-81
2022/05/24 00:42:35;;;;;;;0.40;0.40;;;16.90;73.80;;;;;;5039757;28;20212;-80
2022/05/24 00:45:05;;;;;;;0.40;0.40;;;17.00;52.30;;;;;;5039676;28;20184;-81
2022/05/24 00:47:38;;;;;;;0.40;0.40;;;17.00;84.00;;;;;;5039671;28;20184;-80
2022/05/24 00:50:14;;;;;;;0.30;0.30;;;17.00;80.80;;;;;;5039141;28;20200;-80
2022/05/24 00:53:03;;;;;;;0.30;0.30;;;17.00;73.10;;;;;;5039464;28;20219;-80
2022/05/24 00:55:34;;;;;;;0.40;0.40;;;17.00;42.30;;;;;;5009135;28;20184;-79
2022/05/24 00:58:12;;;;;;;0.33;0.33;;;16.90;47.40;;;;;;5038796;28;20211;-80
2022/05/24 01:00:39;;;;;;;0.30;0.30;;;16.90;27.80;;;;;;5032852;28;20181;-78
2022/05/24 01:03:05;;;;;;;0.40;0.40;;;16.80;50.20;;;;;;5014914;28;20189;-77
2022/05/24 01:05:31;;;;;;;0.33;0.33;;;16.80;69.60;;;;;;5015734;28;20179;-78
2022/05/24 01:07:57;;;;;;;0.30;0.30;;;16.90;93.50;;;;;;5016146;28;20180;-77
2022/05/24 01:10:35;;;;;;;0.37;0.37;;;16.80;83.70;;;;;;5015086;28;20177;-78
2022/05/24 01:13:31;;;;;;;0.30;0.30;;;16.80;97.60;;;;;;5017701;28;20231;-78
2022/05/24 01:15:57;;;;;;;0.30;0.30;;;16.80;90.60;;;;;;5002251;28;20584;-78
2022/05/24 01:18:24;;;;;;;0.40;0.40;;;16.80;99.10;;;;;;5014848;28;20175;-77
2022/05/24 01:20:55;;;;;;;0.30;0.30;;;16.70;99.90;;;;;;5014130;28;20204;-79
2022/05/24 01:23:40;;;;;;;0.30;0.30;;;16.70;99.90;;;;;;5014338;28;20562;-77
2022/05/24 01:26:18;;;;;;;0.43;0.43;;;16.70;99.90;;;;;;5013909;28;20180;-79
2022/05/24 01:28:53;;;;;;;0.50;0.50;;;16.70;99.90;;;;;;5013975;28;20434;-77
2022/05/24 01:31:21;;;;;;;0.30;0.30;;;16.70;99.90;;;;;;5017187;28;20192;-77
2022/05/24 01:36:38;;;;;;;0.30;0.30;;;16.60;99.90;;;;;;5016728;28;20637;-78
2022/05/24 01:39:07;;;;;;;0.40;0.40;;;16.60;99.90;;;;;;5014060;28;20184;-77
2022/05/24 01:41:41;;;;;;;0.40;0.40;;;16.60;99.90;;;;;;5014971;28;20211;-78
2022/05/24 01:44:07;;;;;;;0.40;0.40;;;16.60;99.90;;;;;;5014682;28;20606;-78
2022/05/24 01:46:40;;;;;;;0.30;0.30;;;16.60;99.90;;;;;;5015197;28;20593;-78
2022/05/24 01:49:33;;;;;;;0.40;0.40;;;16.60;99.90;;;;;;5013779;28;20294;-78
2022/05/24 01:52:06;;;;;;;0.30;0.30;;;16.60;99.90;;;;;;5014392;28;20203;-77
2022/05/24 01:54:41;;;;;;;0.40;0.40;;;16.60;99.90;;;;;;5014596;28;20184;-78
2022/05/24 01:57:14;;;;;;;0.30;0.30;;;16.60;99.90;;;;;;5013500;28;20605;-78
2022/05/24 01:59:41;;;;;;;0.33;0.33;;;16.50;99.90;;;;;;5015818;28;20188;-78
2022/05/24 02:02:07;;;;;;;0.37;0.37;;;16.50;99.90;;;;;;5016337;28;20196;-79
2022/05/24 02:04:33;;;;;;;0.40;0.40;;;16.60;99.90;;;;;;5016434;28;20181;-79
2022/05/24 02:07:06;;;;;;;0.40;0.40;;;16.50;99.90;;;;;;5015775;28;20181;-78
2022/05/24 02:09:34;;;;;;;0.30;0.30;;;16.50;99.90;;;;;;5014875;28;20180;-80
2022/05/24 02:12:05;;;;;;;0.37;0.37;;;16.50;99.90;;;;;;5015486;28;20197;-79
2022/05/24 02:14:35;;;;;;;0.40;0.40;;;16.50;99.90;;;;;;5015497;28;20553;-80
2022/05/24 02:17:12;;;;;;;0.30;0.30;;;16.50;99.90;;;;;;5015873;28;20267;-78
2022/05/24 02:19:44;;;;;;;0.40;0.40;;;16.50;99.90;;;;;;5014854;28;20192;-81
2022/05/24 02:22:14;;;;;;;0.40;0.40;;;16.50;99.90;;;;;;5014915;28;20754;-78
2022/05/24 02:24:39;;;;;;;0.30;0.30;;;16.50;99.90;;;;;;5014945;28;20641;-80
2022/05/24 02:27:05;;;;;;;0.30;0.30;;;16.50;99.90;;;;;;5014252;28;20180;-78
2022/05/24 02:29:31;;;;;;;0.30;0.30;;;16.50;99.90;;;;;;5013443;28;20275;-79
2022/05/24 02:31:57;;;;;;;0.40;0.40;;;16.50;99.90;;;;;;5014092;28;20224;-78
2022/05/24 02:34:23;;;;;;;0.40;0.40;;;16.50;99.90;;;;;;5013224;28;20226;-79
2022/05/24 02:36:49;;;;;;;0.40;0.40;;;16.50;99.90;;;;;;5015044;28;20235;-79
2022/05/24 02:39:14;;;;;;;0.43;0.43;;;16.40;99.90;;;;;;5014193;28;20192;-79
2022/05/24 02:41:40;;;;;;;0.30;0.30;;;16.40;99.90;;;;;;5014909;28;20215;-77
2022/05/24 02:44:09;;;;;;;0.40;0.40;;;16.30;99.90;;;;;;5012629;28;20176;-78
2022/05/24 02:46:38;;;;;;;0.50;0.50;;;16.30;99.90;;;;;;5012539;28;20195;-78
2022/05/24 02:49:04;;;;;;;0.30;0.30;;;16.20;99.90;;;;;;5128034;22;20603;-78
2022/05/24 02:51:30;;;;;;;0.40;0.40;;;16.10;99.90;;;;;;5034600;28;20728;-79
2022/05/24 02:53:56;;;;;;;0.30;0.30;;;16.10;99.90;;;;;;5035009;28;20219;-79
2022/05/24 02:56:22;;;;;;;0.30;0.30;;;16.00;99.90;;;;;;5034634;28;20655;-79
2022/05/24 02:58:48;;;;;;;0.30;0.30;;;16.00;99.90;;;;;;5034895;28;20180;-79
2022/05/24 03:01:25;;;;;;;0.30;0.30;;;16.00;99.90;;;;;;5034201;28;20207;-78
2022/05/24 03:03:52;;;;;;;0.40;0.40;;;16.00;99.90;;;;;;5033246;28;20179;-77
2022/05/24 03:06:19;;;;;;;0.30;0.30;;;15.90;99.90;;;;;;5032125;28;20175;-77
2022/05/24 03:14:14;;;;;;;0.37;0.37;;;15.90;99.90;;;;;;5032303;28;20246;-76
2022/05/24 03:14:17;;;;;;;0.30;0.30;;;15.80;99.90;;;;;;5031866;28;20280;-76
2022/05/24 03:16:47;;;;;;;0.47;0.47;;;15.80;99.90;;;;;;5032133;28;20225;-76
2022/05/24 03:19:13;;;;;;;0.30;0.30;;;15.70;99.90;;;;;;5031610;28;20183;-77
2022/05/24 03:21:39;;;;;;;0.40;0.40;;;15.70;99.90;;;;;;5031450;28;20196;-76
2022/05/24 03:24:04;;;;;;;0.43;0.43;;;15.70;99.90;;;;;;5031923;28;20207;-76
2022/05/24 03:26:30;;;;;;;0.33;0.33;;;15.70;99.90;;;;;;5031685;28;20180;-77
2022/05/24 03:28:55;;;;;;;0.40;0.40;;;15.70;99.90;;;;;;5031349;28;20191;-76
2022/05/24 03:31:21;;;;;;;0.40;0.40;;;15.70;99.90;;;;;;5031679;28;20195;-76
2022/05/24 03:33:47;;;;;;;0.40;0.40;;;15.70;99.90;;;;;;5032168;28;20231;-76
2022/05/24 03:36:13;;;;;;;0.40;0.40;;;15.80;99.90;;;;;;5031913;28;20175;-76
2022/05/24 03:38:39;;;;;;;0.30;0.30;;;15.70;99.90;;;;;;5031722;28;20267;-76
2022/05/24 03:41:04;;;;;;;0.30;0.30;;;15.80;99.90;;;;;;5030826;28;20672;-75
2022/05/24 03:43:30;;;;;;;0.40;0.40;;;15.70;99.90;;;;;;5031628;28;20523;-76
2022/05/24 03:46:04;;;;;;;0.37;0.37;;;15.80;99.90;;;;;;5031654;28;20780;-77
2022/05/24 03:48:30;;;;;;;0.30;0.30;;;15.80;99.90;;;;;;5031684;28;20202;-76
2022/05/24 03:50:57;;;;;;;0.37;0.37;;;15.80;99.90;;;;;;5031543;28;20195;-76
2022/05/24 03:53:24;;;;;;;0.30;0.30;;;15.80;99.90;;;;;;5031681;28;20262;-77
2022/05/24 03:55:49;;;;;;;0.40;0.40;;;15.80;99.90;;;;;;5031813;28;20554;-76
2022/05/24 03:58:15;;;;;;;0.40;0.40;;;15.80;99.90;;;;;;5031533;28;20695;-78
2022/05/24 04:00:42;;;;;;;0.40;0.40;;;15.90;99.90;;;;;;5030870;28;20199;-77
2022/05/24 04:03:08;;;;;;;0.30;0.30;;;15.90;99.90;;;;;;5031635;28;20180;-76
2022/05/24 04:05:34;;;;;;;0.30;0.30;;;15.90;99.90;;;;;;5031537;28;20233;-76
2022/05/24 04:08:01;;;;;;;0.30;0.30;;;15.90;99.90;;;;;;5031398;28;20637;-75
2022/05/24 04:10:29;;;;;;;0.40;0.40;;;15.90;99.90;;;;;;5031426;28;20690;-76
2022/05/24 04:12:55;;;;;;;0.33;0.33;;;15.90;99.90;;;;;;5031227;28;20214;-77
2022/05/24 04:15:22;;;;;;;0.40;0.40;;;15.90;99.90;;;;;;5031146;28;20176;-76
2022/05/24 04:17:47;;;;;;;0.40;0.40;;;15.90;99.90;;;;;;5031163;28;20180;-76
2022/05/24 04:20:14;;;;;;;0.40;0.40;;;15.90;99.90;;;;;;5030961;28;20318;-75
2022/05/24 04:22:40;;;;;;;0.30;0.30;;;15.90;99.90;;;;;;5030883;28;20567;-75
2022/05/24 04:25:07;;;;;;;0.30;0.30;;;15.90;99.90;;;;;;5031223;28;20168;-76
2022/05/24 04:27:32;;;;;;;0.40;0.40;;;15.90;99.90;;;;;;5031412;28;20183;-76
2022/05/24 04:29:58;;;;;;;0.40;0.40;;;16.00;99.90;;;;;;5030802;28;20183;-76
2022/05/24 04:32:24;;;;;;;0.40;0.40;;;16.00;99.90;;;;;;5032649;28;20220;-76
2022/05/24 04:34:50;;;;;;;0.53;0.53;;;16.00;99.90;;;;;;5034860;28;20546;-77
2022/05/24 04:37:15;;;;;;;0.40;0.40;;;15.90;99.90;;;;;;5034797;28;20635;-77
2022/05/24 04:39:41;;;;;;;0.30;0.30;;;15.90;99.90;;;;;;5034159;28;20673;-77
2022/05/24 04:42:19;;;;;;;0.30;0.30;;;15.90;99.90;;;;;;5035135;28;20219;-77
2022/05/24 04:44:47;;;;;;;0.40;0.40;;;15.90;99.90;;;;;;5035767;28;20201;-77
2022/05/24 04:47:13;;;;;;;0.43;0.43;;;15.90;99.90;;;;;;5035342;28;20286;-77
2022/05/24 04:49:44;;;;;;;0.40;0.40;;;16.00;99.90;;;;;;5034068;28;20195;-77
2022/05/24 04:52:11;;;;;;;0.30;0.30;;;16.00;99.90;;;;;;5034577;28;20560;-77
2022/05/24 04:54:41;;;;;;;0.40;0.40;;;16.00;99.90;;;;;;5034853;28;20190;-77
2022/05/24 04:57:07;;;;;;;0.40;0.40;;;16.00;99.90;;;;;;5034903;28;20186;-77
2022/05/24 04:59:33;;;;;;;0.40;0.40;;;16.00;99.90;;;;;;5034107;28;20176;-77
2022/05/24 05:01:59;;;;;;;0.30;0.30;;;15.90;99.90;;;;;;5034436;28;20550;-76
2022/05/24 05:04:25;;;;;;;0.40;0.40;;;15.90;99.90;;;;;;5035226;28;20176;-76
2022/05/24 05:06:51;;;;;;;0.40;0.40;;;15.90;99.90;;;;;;5037436;28;20627;-76
2022/05/24 05:09:17;;;;;;;0.30;0.30;;;15.90;99.90;;;;;;5036426;28;20176;-76
2022/05/24 05:11:43;;;;;;;0.40;0.40;;;16.00;99.90;;;;;;5035487;28;20199;-77
2022/05/24 05:14:10;;;;;;;0.30;0.30;;;16.00;99.90;;;;;;5034753;28;20212;-77
2022/05/24 05:16:36;;;;;;;0.30;0.30;;;16.00;99.90;;;;;;5034701;28;20176;-77
2022/05/24 05:19:09;;;;;;;0.40;0.40;;;16.10;99.90;;;;;;5033983;28;20202;-77
2022/05/24 05:21:37;;;;;;;0.30;0.30;;;16.10;99.90;;;;;;5034642;28;20200;-78
2022/05/24 05:24:05;;;;;;;0.37;0.37;;;16.20;99.90;;;;;;5034173;28;20187;-77
2022/05/24 05:26:31;;;;;;;0.40;0.40;;;16.20;99.90;;;;;;5034557;28;20241;-77
2022/05/24 05:28:57;;;;;;;0.30;0.30;;;16.30;99.90;;;;;;5033701;28;20267;-77
2022/05/24 05:31:24;;;;;;;0.30;0.30;;;16.40;99.90;;;;;;5034311;28;20672;-77
2022/05/24 05:33:51;;;;;;;0.30;0.30;;;16.40;99.90;;;;;;5034449;28;20223;-76
2022/05/24 05:36:18;;;;;;;0.40;0.40;;;16.30;99.90;;;;;;5033976;28;20230;-77
2022/05/24 05:38:47;;;;;;;0.30;0.30;;;16.30;99.90;;;;;;5034039;28;20187;-77
2022/05/24 05:41:15;;;;;;;0.37;0.37;;;16.30;99.90;;;;;;5033454;28;20221;-78
2022/05/24 05:43:41;;;;;;;0.30;0.30;;;16.40;99.90;;;;;;5034547;28;20175;-78
2022/05/24 05:46:07;;;;;;;0.40;0.40;;;16.50;99.90;;;;;;5033666;28;20176;-75
2022/05/24 05:48:34;;;;;;;0.40;0.40;;;16.50;99.90;;;;;;5033249;28;20218;-75
2022/05/24 05:51:00;;;;;;;0.37;0.37;;;16.50;99.90;;;;;;5032684;28;20192;-76
2022/05/24 05:53:25;;;;;;;0.40;0.40;;;16.60;99.90;;;;;;5033278;28;20584;-75
2022/05/24 05:55:51;;;;;;;0.40;0.40;;;16.70;98.20;;;;;;5032685;28;21325;-75
2022/05/24 05:58:16;;;;;;;0.40;0.40;;;16.80;99.90;;;;;;5032021;28;20195;-74
2022/05/24 06:00:42;;;;;;;0.30;0.30;;;17.00;99.90;;;;;;5032159;28;20176;-75
2022/05/24 06:03:08;;;;;;;0.40;0.40;;;17.10;75.30;;;;;;5033000;28;20180;-75
2022/05/24 06:05:34;;;;;;;0.50;0.50;;;17.20;1.00;;;;;;5031453;28;20180;-75
2022/05/24 06:08:01;;;;;;;0.30;0.30;;;17.20;1.00;;;;;;5031639;28;20540;-75
2022/05/24 06:10:28;;;;;;;0.40;0.40;;;17.20;1.00;;;;;;5032298;28;20179;-75
2022/05/24 06:12:57;;;;;;;0.40;0.40;;;17.20;1.00;;;;;;5032833;28;20251;-75
2022/05/24 06:15:25;;;;;;;0.30;0.30;;;17.20;1.00;;;;;;5032297;28;20551;-75
2022/05/24 06:17:52;;;;;;;0.40;0.40;;;17.30;1.00;;;;;;5032203;28;20188;-76
2022/05/24 06:20:20;;;;;;;0.30;0.30;;;17.30;1.00;;;;;;5031366;28;20172;-75
2022/05/24 06:22:46;;;;;;;0.40;0.40;;;17.30;1.00;;;;;;5031884;28;20245;-75
2022/05/24 06:25:12;;;;;;;0.40;0.40;;;17.40;1.00;;;;;;5032101;28;20260;-76
2022/05/24 06:27:38;;;;;;;0.30;0.30;;;17.50;1.00;;;;;;5032440;28;20580;-75
2022/05/24 06:30:04;;;;;;;0.40;0.40;;;17.70;1.00;;;;;;5032058;28;20537;-76
2022/05/24 06:32:30;;;;;;;0.40;0.40;;;17.90;1.00;;;;;;5032241;28;20257;-76
2022/05/24 06:34:56;;;;;;;0.40;0.40;;;18.10;99.90;;;;;;5032162;28;20674;-75
2022/05/24 06:37:22;;;;;;;0.30;0.30;;;18.20;1.00;;;;;;5032491;28;20700;-76
2022/05/24 06:39:48;;;;;;;0.40;0.40;;;18.20;1.00;;;;;;5031836;28;20217;-76
2022/05/24 06:42:14;;;;;;;0.40;0.40;;;18.30;1.00;;;;;;5031631;28;20196;-76
2022/05/24 06:44:39;;;;;;;0.40;0.40;;;18.40;1.00;;;;;;5031894;28;20178;-76
2022/05/24 06:47:05;;;;;;;0.30;0.30;;;18.50;46.50;;;;;;5032174;28;20648;-76
2022/05/24 06:49:31;;;;;;;0.30;0.30;;;18.50;1.00;;;;;;5031399;28;20183;-76
2022/05/24 06:51:57;;;;;;;0.30;0.30;;;18.70;1.00;;;;;;5031633;28;20210;-76
2022/05/24 06:54:23;;;;;;;0.30;0.30;;;18.80;1.00;;;;;;5031614;28;20243;-76
2022/05/24 06:56:49;;;;;;;0.33;0.33;;;18.90;99.90;;;;;;5032030;28;20183;-75
2022/05/24 07:04:43;;;;;;;0.30;0.30;;;19.30;99.90;;;;;;5031655;28;20697;-75
2022/05/24 07:07:08;;;;;;;0.40;0.40;;;19.40;1.00;;;;;;5031172;28;20180;-76
2022/05/24 07:09:34;;;;;;;0.30;0.30;;;19.30;1.00;;;;;;5030886;28;20180;-75
2022/05/24 07:12:00;;;;;;;0.33;0.33;;;19.20;1.00;;;;;;5031368;28;20196;-75
2022/05/24 07:14:26;;;;;;;0.40;0.40;;;19.00;1.00;;;;;;5030902;28;20203;-75
2022/05/24 07:16:52;;;;;;;0.30;0.30;;;18.90;99.90;;;;;;5031189;28;20282;-76
2022/05/24 07:19:19;;;;;;;0.40;0.40;;;18.80;33.30;;;;;;5030859;28;20203;-75
2022/05/24 07:21:44;;;;;;;0.40;0.40;;;18.60;99.90;;;;;;5032091;28;20204;-77
2022/05/24 07:24:10;;;;;;;0.30;0.30;;;18.50;99.90;;;;;;5031408;28;20180;-76
2022/05/24 07:26:36;;;;;;;0.30;0.30;;;18.40;99.90;;;;;;5031889;28;20706;-76
2022/05/24 07:29:03;;;;;;;0.30;0.30;;;17.70;99.90;;;;;;5030925;28;20191;-75
2022/05/24 07:31:29;;;;;;;0.40;0.40;;;17.00;1.00;;;;;;5031578;28;20223;-75
2022/05/24 07:33:54;;;;;;;0.43;0.43;;;16.10;99.90;;;;;;5031443;28;20634;-74
2022/05/24 07:36:20;;;;;;;0.30;0.30;;;15.40;1.00;;;;;;5031334;28;20187;-76
2022/05/24 07:38:46;;;;;;;0.47;0.47;;;15.00;1.00;;;;;;5031098;28;20180;-75
2022/05/24 07:46:40;;;;;;;0.37;0.37;;;14.60;1.00;;;;;;5031542;28;20221;-76
2022/05/24 07:49:05;;;;;;;0.30;0.30;;;14.60;1.00;;;;;;5030186;28;20649;-76
2022/05/24 07:51:32;;;;;;;0.30;0.30;;;14.70;1.00;;;;;;5031185;28;20194;-75
2022/05/24 07:53:57;;;;;;;0.43;0.43;;;14.70;1.00;;;;;;5031118;28;20207;-75
2022/05/24 07:56:23;;;;;;;0.40;0.40;;;14.60;1.00;;;;;;5031362;28;20178;-76
2022/05/24 07:58:50;;;;;;;0.50;0.50;;;14.60;60.20;;;;;;5031145;28;20525;-76
2022/05/24 08:01:17;;;;;;;0.40;0.40;;;14.60;39.10;;;;;;5031054;28;20282;-76
2022/05/24 08:03:43;;;;;;;0.40;0.40;;;14.60;99.90;;;;;;5031219;28;20203;-76
2022/05/24 08:06:10;;;;;;;0.40;0.40;;;14.60;99.90;;;;;;5031193;28;20179;-76
2022/05/24 08:08:35;;;;;;;0.47;0.47;;;14.70;95.60;;;;;;5034564;28;20180;-76
2022/05/24 08:11:01;;;;;;;0.53;0.53;;;14.90;99.90;;;;;;5034701;28;20210;-76
2022/05/24 08:13:27;;;;;;;0.30;0.30;;;15.20;99.90;;;;;;5035063;28;20220;-76
2022/05/24 08:15:54;;;;;;;0.40;0.40;;;15.50;1.00;;;;;;5035020;28;20182;-75
2022/05/24 08:18:21;;;;;;;0.40;0.40;;;15.70;1.00;;;;;;5034998;28;20176;-76
2022/05/24 08:20:47;;;;;;;0.50;0.50;;;15.90;1.00;;;;;;5034237;28;20260;-76
2022/05/24 08:23:13;;;;;;;0.43;0.43;;;16.00;1.00;;;;;;5034868;28;20187;-74
2022/05/24 08:25:39;;;;;;;0.30;0.30;;;15.90;1.00;;;;;;5035203;28;20233;-75
2022/05/24 08:28:07;;;;;;;0.47;0.47;;;15.90;1.00;;;;;;5035483;28;20589;-75
2022/05/24 08:30:35;;;;;;;0.40;0.40;;;16.00;1.00;;;;;;5034751;28;20176;-75
2022/05/24 08:33:04;;;;;;;0.50;0.50;;;16.00;1.00;;;;;;5035188;28;20212;-75
2022/05/24 08:35:34;;;;;;;0.43;0.43;;;16.10;1.00;;;;;;5033452;28;20184;-75
2022/05/24 08:38:01;;;;;;;0.40;0.40;;;16.40;1.00;;;;;;5034667;28;20183;-75
2022/05/24 08:40:27;;;;;;;0.50;0.50;;;16.50;1.00;;;;;;5034278;28;20187;-76
2022/05/24 08:42:55;;;;;;;0.40;0.40;;;16.90;99.90;;;;;;5034879;28;20576;-75
2022/05/24 08:48:38;;;;;;;0.50;0.50;;;17.40;99.90;;;;;;5034950;28;20713;-76
2022/05/24 08:51:15;;;;;;;0.30;0.30;;;17.50;99.90;;;;;;5050511;22;20234;-79
2022/05/24 08:53:49;;;;;;;0.33;0.33;;;17.40;1.00;;;;;;5040601;28;20207;-79
2022/05/24 08:56:19;;;;;;;0.30;0.30;;;17.50;99.90;;;;;;5040367;28;20176;-80
2022/05/24 08:58:50;;;;;;;0.40;0.40;;;17.50;99.90;;;;;;5039674;28;20206;-78
2022/05/24 09:01:32;;;;;;;0.40;0.40;;;17.40;1.00;;;;;;5041871;28;20196;-78
2022/05/24 09:04:09;;;;;;;0.30;0.30;;;17.50;99.90;;;;;;5043233;28;20183;-79
2022/05/24 09:06:59;;;;;;;0.33;0.33;;;17.50;99.90;;;;;;5035773;28;20167;-76
2022/05/24 09:09:42;;;;;;;0.30;0.30;;;17.60;99.90;;;;;;5034261;28;20184;-77
2022/05/24 09:12:17;;;;;;;0.30;0.30;;;17.60;1.00;;;;;;5034960;28;20203;-78
2022/05/24 09:15:06;;;;;;;0.30;0.30;;;17.50;99.90;;;;;;5034902;28;20187;-76
2022/05/24 09:17:51;;;;;;;0.40;0.40;;;17.40;1.00;;;;;;5034497;28;20555;-77
2022/05/24 09:20:39;;;;;;;0.37;0.37;;;17.40;1.00;;;;;;5033906;28;20242;-77
2022/05/24 09:23:29;;;;;;;0.30;0.30;;;17.50;1.00;;;;;;5034448;28;20187;-77
2022/05/24 09:25:57;;;;;;;0.30;0.30;;;17.80;1.00;;;;;;5031197;28;20176;-77
2022/05/24 09:28:50;;;;;;;0.37;0.37;;;18.00;99.90;;;;;;5034083;28;20172;-77
2022/05/24 09:31:31;;;;;;;0.40;0.40;;;18.40;19.70;;;;;;5035353;28;20196;-78
2022/05/24 09:34:24;;;;;;;0.30;0.30;;;18.80;1.00;;;;;;5032605;28;20258;-77
2022/05/24 09:36:56;;;;;;;0.30;0.30;;;19.30;99.90;;;;;;5031329;28;20203;-76
2022/05/24 09:39:32;;;;;;;0.30;0.30;;;19.20;1.00;;;;;;5033282;28;20207;-77
2022/05/24 09:42:24;;;;;;;0.37;0.37;;;19.10;1.00;;;;;;5033739;28;20202;-75
2022/05/24 09:44:58;;;;;;;0.40;0.40;;;19.50;1.00;;;;;;5033970;28;20176;-76
2022/05/24 09:47:27;;;;;;;0.37;0.37;;;20.10;21.50;;;;;;5033669;28;20171;-77
2022/05/24 09:50:13;;;;;;;0.23;0.23;;;21.10;1.00;;;;;;5033912;28;20176;-77
2022/05/24 09:52:39;;;;;;;0.30;0.30;;;21.10;1.00;;;;;;5033947;28;20235;-77
2022/05/24 09:55:05;;;;;;;0.30;0.30;;;21.00;1.00;;;;;;5033579;28;20226;-76
2022/05/24 09:57:34;;;;;;;0.37;0.37;;;21.00;1.00;;;;;;5034214;28;20206;-77
2022/05/24 10:00:04;;;;;;;0.40;0.40;;;21.30;1.00;;;;;;5034362;28;20575;-77
2022/05/24 10:02:34;;;;;;;0.30;0.30;;;21.60;1.00;;;;;;5035926;28;20191;-77
2022/05/24 10:05:01;;;;;;;0.30;0.30;;;21.70;1.00;;;;;;5037220;28;20176;-77
2022/05/24 10:07:32;;;;;;;0.30;0.30;;;21.90;1.00;;;;;;5038198;28;20198;-77
2022/05/24 10:10:09;;;;;;;0.40;0.40;;;22.10;1.00;;;;;;5034183;28;20184;-77
2022/05/24 10:12:56;;;;;;;0.30;0.30;;;22.10;1.00;;;;;;5033479;28;20230;-77
2022/05/24 10:15:27;;;;;;;0.50;0.50;;;21.90;1.00;;;;;;5033663;28;20172;-77
2022/05/24 10:18:30;;;;;;;0.40;0.40;;;22.40;1.00;;;;;;5033749;28;20249;-78
2022/05/24 10:21:08;;;;;;;0.30;0.30;;;22.70;1.00;;;;;;5033187;28;20195;-77
2022/05/24 10:23:41;;;;;;;0.40;0.40;;;23.60;1.00;;;;;;5033232;28;20168;-77
2022/05/24 10:26:21;;;;;;;0.40;0.40;;;24.10;1.00;;;;;;5033187;28;20182;-77
2022/05/24 10:29:21;;;;;;;0.40;0.40;;;24.00;1.00;;;;;;5033666;28;20626;-77
2022/05/24 10:31:56;;;;;;;0.50;0.50;;;23.20;1.00;;;;;;5033722;28;20199;-77
2022/05/24 10:40:38;;;;;;;0.33;0.33;;;21.80;1.00;;;;;;5032697;28;20190;-78
2022/05/24 10:43:12;;;;;;;0.40;0.40;;;21.50;1.00;;;;;;5033824;28;20180;-77
2022/05/24 10:45:51;;;;;;;0.33;0.33;;;21.30;1.00;;;;;;5033675;28;20202;-77
2022/05/24 10:48:34;;;;;;;0.50;0.50;;;20.90;1.00;;;;;;5033290;28;20184;-76
2022/05/24 10:51:18;;;;;;;0.30;0.30;;;20.70;1.00;;;;;;5031900;28;20322;-78
2022/05/24 10:53:57;;;;;;;0.30;0.30;;;21.10;1.00;;;;;;5033275;28;20219;-77
2022/05/24 10:56:39;;;;;;;0.30;0.30;;;21.30;1.00;;;;;;5032837;28;20171;-78
2022/05/24 10:59:17;;;;;;;0.30;0.30;;;21.20;1.00;;;;;;5032720;28;20175;-77
2022/05/24 11:01:51;;;;;;;0.40;0.40;;;21.60;1.00;;;;;;5016094;28;20354;-77
2022/05/24 11:04:23;;;;;;;0.40;0.40;;;22.20;1.00;;;;;;5016402;28;20184;-78
2022/05/24 11:07:01;;;;;;;0.30;0.30;;;23.00;1.00;;;;;;5015690;28;20204;-78
2022/05/24 11:09:30;;;;;;;0.33;0.33;;;23.50;1.00;;;;;;5014189;28;20512;-77
2022/05/24 11:12:07;;;;;;;0.40;0.40;;;23.90;1.00;;;;;;5026540;28;20203;-78
2022/05/24 11:14:48;;;;;;;0.40;0.40;;;23.60;1.00;;;;;;5032467;28;20207;-76
2022/05/24 11:17:16;;;;;;;0.50;0.50;;;23.50;1.00;;;;;;5031583;28;20164;-76
2022/05/24 11:19:49;;;;;;;0.37;0.37;;;23.50;1.00;;;;;;5033991;28;20183;-78
2022/05/24 11:22:50;;;;;;;0.37;0.37;;;23.30;1.00;;;;;;5033726;28;20199;-78
2022/05/24 11:25:25;;;;;;;0.30;0.30;;;23.10;1.00;;;;;;5001018;28;20234;-78
2022/05/24 11:27:56;;;;;;;0.30;0.30;;;22.90;1.00;;;;;;5034345;28;20179;-78
2022/05/24 11:30:27;;;;;;;0.40;0.40;;;23.10;1.00;;;;;;5034003;28;20278;-77
2022/05/24 11:33:07;;;;;;;0.30;0.30;;;23.40;1.00;;;;;;5033542;28;20206;-77
2022/05/24 11:35:40;;;;;;;0.40;0.40;;;23.20;1.00;;;;;;5033585;28;20172;-77
2022/05/24 11:38:13;;;;;;;0.40;0.40;;;22.90;1.00;;;;;;5032832;28;20245;-78
2022/05/24 11:40:54;;;;;;;0.50;0.50;;;22.50;1.00;;;;;;5032635;28;20176;-77
2022/05/24 11:43:35;;;;;;;0.50;0.50;;;22.40;1.00;;;;;;5032533;28;20233;-77
2022/05/24 11:46:05;;;;;;;0.50;0.50;;;22.90;1.00;;;;;;5032492;28;20178;-77
2022/05/24 11:48:59;;;;;;;0.50;0.50;;;23.80;1.00;;;;;;5032569;28;20310;-78
2022/05/24 11:51:31;;;;;;;0.40;0.40;;;24.40;1.00;;;;;;5030117;28;20219;-77
2022/05/24 11:53:56;;;;;;;0.40;0.40;;;25.00;1.00;;;;;;5033020;28;20265;-76
2022/05/24 11:56:24;;;;;;;0.40;0.40;;;25.50;1.00;;;;;;5033807;28;20184;-76
2022/05/24 11:58:53;;;;;;;0.50;0.50;;;25.70;1.00;;;;;;5033754;28;20240;-76
2022/05/24 12:01:19;;;;;;;0.30;0.30;;;25.40;1.00;;;;;;5034375;28;20227;-76
2022/05/24 12:10:11;;;;;;;0.40;0.40;;;24.70;1.00;;;;;;5032879;28;20285;-77
2022/05/24 12:12:50;;;;;;;0.50;0.50;;;24.10;1.00;;;;;;5032843;28;20199;-76
2022/05/24 12:15:23;;;;;;;0.30;0.30;;;23.60;1.00;;;;;;5033365;28;20226;-77
2022/05/24 12:17:53;;;;;;;0.20;0.20;;;23.60;1.00;;;;;;5033636;28;20642;-77
2022/05/24 12:20:33;;;;;;;0.47;0.47;;;23.80;1.00;;;;;;5032862;28;20172;-77
2022/05/24 12:23:13;;;;;;;0.37;0.37;;;24.70;1.00;;;;;;5043270;28;20183;-76
2022/05/24 12:25:50;;;;;;;0.30;0.30;;;25.50;1.00;;;;;;5040046;28;20179;-76
2022/05/24 12:28:16;;;;;;;0.40;0.40;;;25.70;1.00;;;;;;5041517;28;20218;-77
2022/05/24 12:30:47;;;;;;;0.40;0.40;;;25.30;1.00;;;;;;5037865;28;20184;-76
2022/05/24 12:33:18;;;;;;;0.40;0.40;;;25.20;1.00;;;;;;5040191;28;20218;-77
2022/05/24 12:36:18;;;;;;;0.40;0.40;;;25.10;1.00;;;;;;5041802;28;20179;-76
2022/05/24 12:38:49;;;;;;;0.30;0.30;;;25.50;1.00;;;;;;5044715;28;20182;-77
2022/05/24 12:41:29;;;;;;;0.33;0.33;;;25.80;1.00;;;;;;5040734;28;20192;-78
2022/05/24 12:43:59;;;;;;;0.30;0.30;;;26.00;1.00;;;;;;5033195;28;20167;-76
2022/05/24 12:46:33;;;;;;;0.30;0.30;;;26.10;1.00;;;;;;5033071;28;20172;-77
2022/05/24 12:49:07;;;;;;;0.30;0.30;;;25.90;1.00;;;;;;5033203;28;20542;-76
2022/05/24 12:51:32;;;;;;;0.40;0.40;;;25.40;1.00;;;;;;5032344;28;20749;-76
2022/05/24 12:54:12;;;;;;;0.37;0.37;;;25.20;1.00;;;;;;5034813;28;20216;-77
2022/05/24 12:56:39;;;;;;;0.40;0.40;;;25.30;1.00;;;;;;5036934;28;20263;-77
2022/05/24 12:59:12;;;;;;;0.37;0.37;;;25.40;1.00;;;;;;5036403;28;20679;-77
2022/05/24 13:01:41;;;;;;;0.40;0.40;;;25.30;1.00;;;;;;5036608;28;20650;-77
2022/05/24 13:04:23;;;;;;;0.40;0.40;;;25.40;1.00;;;;;;5036382;28;20548;-77
2022/05/24 13:06:48;;;;;;;0.40;0.40;;;25.50;1.00;;;;;;5036761;28;20184;-76
2022/05/24 13:09:32;;;;;;;0.40;0.40;;;25.80;1.00;;;;;;5035911;28;20241;-77
2022/05/24 13:12:04;;;;;;;0.40;0.40;;;25.90;1.00;;;;;;5036183;28;20200;-77
2022/05/24 13:14:57;;;;;;;0.40;0.40;;;25.70;1.00;;;;;;5035880;28;20214;-76
2022/05/24 13:17:25;;;;;;;0.40;0.40;;;25.00;1.00;;;;;;5035699;28;20176;-77
2022/05/24 13:19:55;;;;;;;0.27;0.27;;;24.40;1.00;;;;;;5035593;28;20176;-77
2022/05/24 13:22:25;;;;;;;0.40;0.40;;;24.10;1.00;;;;;;5035839;28;20196;-77
2022/05/24 13:24:59;;;;;;;0.47;0.47;;;24.00;1.00;;;;;;5035786;28;20190;-77
2022/05/24 13:27:25;;;;;;;0.50;0.50;;;24.20;1.00;;;;;;5035599;28;20187;-78
2022/05/24 13:35:29;;;;;;;0.40;0.40;;;25.00;1.00;;;;;;5035984;28;20664;-77
2022/05/24 13:37:57;;;;;;;0.40;0.40;;;25.00;1.00;;;;;;5036880;28;20191;-76
2022/05/24 13:40:41;;;;;;;0.37;0.37;;;25.10;1.00;;;;;;5036220;28;20176;-76
2022/05/24 13:43:07;;;;;;;0.40;0.40;;;24.80;1.00;;;;;;5036229;28;20192;-77
2022/05/24 13:45:34;;;;;;;0.50;0.50;;;24.20;1.00;;;;;;5035701;28;20180;-78
2022/05/24 13:48:20;;;;;;;0.30;0.30;;;23.70;1.00;;;;;;5035909;28;20183;-77